Have a Safe July 4th! 

Flight Track Log - Related Links

Times and Time Zones

All times are in EDT time to prevent confusion due to time zone crossing. See the SWA2975 flight status page for this flight to view local times or setup timezone preferences in your user account.

Time Position Orientation Groundspeed Altitude Reporting Facility
EDT Latitude Longitude Course Direction KTS MPH feet Rate Location/Type
Sun 10:59:38 PM 41.8030 -87.7740 339° North 148 170 2,100  Level FlightAware ADS-B
Sun 10:59:46 PM 41.8090 -87.7750 353° North 150 173 2,300 1,286 Climbing FlightAware ADS-B
Sun 11:00:06 PM 41.8220 -87.7660 27° Northeast 179 206 2,700 1,091 Climbing FlightAware ADS-B
Sun 11:00:19 PM 41.8270 -87.7520 64° Northeast 200 230 2,900 1,800 Climbing FlightAware ADS-B
Sun 11:00:36 PM 41.8280 -87.7310 86° East 218 251 3,600 2,769 Climbing FlightAware ADS-B
Sun 11:00:58 PM 41.8290 -87.7000 88° East 223 257 4,700 1,680 Climbing FlightAware ADS-B
Sun 11:01:26 PM 41.8290 -87.6600 90° East 239 275 5,000 254 Climbing FlightAware ADS-B
Sun 11:02:09 PM 41.8290 -87.5950 90° East 257 296 5,000 300 Level FlightAware ADS-B
Sun 11:02:26 PM 41.8290 -87.5670 90° East 260 299 5,300 2,267 Climbing FlightAware ADS-B
Sun 11:02:54 PM 41.8300 -87.5220 88° East 262 302 6,700 3,263 Climbing FlightAware ADS-B
Sun 11:03:23 PM 41.8300 -87.4760 90° East 265 305 8,400 3,474 Climbing FlightAware ADS-B
Sun 11:03:51 PM 41.8240 -87.4270 99° East 277 319 10,000 3,134 Climbing FlightAware ADS-B
Sun 11:04:30 PM 41.8120 -87.3590 103° East 293 337 11,900 2,243 Climbing FlightAware ADS-B
Sun 11:05:38 PM 41.7890 -87.2200 102° East 355 409 14,000 2,243 Climbing FlightAware ADS-B
Sun 11:06:17 PM 41.7750 -87.1380 103° East 359 413 15,900 2,633 Climbing FlightAware ADS-B
Sun 11:07:16 PM 41.7630 -87.0030 97° East 380 437 18,300 2,280 Climbing FlightAware ADS-B
Sun 11:07:57 PM 41.7640 -86.9070 89° East 392 451 19,700 2,267 Climbing FlightAware ADS-B
Sun 11:08:46 PM 41.7650 -86.7860 89° East 400 460 21,700 2,157 Climbing FlightAware ADS-B
Sun 11:09:26 PM 41.7660 -86.6840 89° East 412 474 22,900 1,800 Climbing FlightAware ADS-B
Sun 11:10:06 PM 41.7670 -86.5810 89° East 422 486 24,100 1,756 Climbing FlightAware ADS-B
Sun 11:10:48 PM 41.7680 -86.4710 89° East 430 495 25,300 1,704 Climbing FlightAware ADS-B
Sun 11:11:27 PM 41.7680 -86.3690 90° East 438 504 26,400 1,610 Climbing FlightAware ADS-B
Sun 11:12:10 PM 41.7800 -86.2530 82° East 445 512 27,500 1,483 Climbing FlightAware ADS-B
Sun 11:12:56 PM 41.8010 -86.1310 77° East 451 519 28,600 1,483 Climbing FlightAware ADS-B
Sun 11:13:39 PM 41.8220 -86.0080 77° East 456 525 29,700 1,390 Climbing FlightAware ADS-B
Sun 11:14:18 PM 41.8360 -85.9050 80° East 461 531 30,500 1,268 Climbing FlightAware ADS-B
Sun 11:15:42 PM 41.8610 -85.7080 80° East 457 526 32,300 1,266 Climbing FlightAware ADS-B
Sun 11:16:26 PM 41.8820 -85.5460 80° East 469 540 33,200 977 Climbing FlightAware ADS-B
Sun 11:17:08 PM 41.8980 -85.4170 80° East 478 550 33,700 723 Climbing FlightAware ADS-B
Sun 11:17:49 PM 41.9120 -85.3010 81° East 484 557 34,200 741 Climbing FlightAware ADS-B
Sun 11:18:29 PM 41.9270 -85.1800 81° East 490 564 34,700 578 Climbing FlightAware ADS-B
Sun 11:19:12 PM 41.9430 -85.0500 81° East 496 571 35,000 178 Climbing FlightAware ADS-B
Sun 11:20:10 PM 41.9640 -84.8870 80° East 496 571 35,000 529 Level FlightAware ADS-B
Sun 11:20:54 PM 41.9800 -84.7420 82° East 484 557 35,900 732 Climbing FlightAware ADS-B
Sun 11:21:32 PM 41.9930 -84.6310 81° East 485 558 36,000 77 Climbing FlightAware ADS-B
Sun 11:22:12 PM 42.0070 -84.5130 81° East 487 560 36,000  Level FlightAware ADS-B
Sun 11:22:52 PM 42.0210 -84.3940 81° East 489 563 36,000  Level FlightAware ADS-B
Sun 11:23:37 PM 42.0370 -84.2550 81° East 490 564 36,000  Level FlightAware ADS-B
Sun 11:24:18 PM 42.0510 -84.1350 81° East 491 565 36,000  Level FlightAware ADS-B
Sun 11:25:04 PM 42.0670 -83.9950 81° East 498 573 36,000 209 Level FlightAware ADS-B
Sun 11:25:44 PM 42.0810 -83.8690 81° East 508 585 36,300 659 Climbing FlightAware ADS-B
Sun 11:26:26 PM 42.0950 -83.7390 82° East 507 583 36,900 494 Climbing FlightAware ADS-B
Sun 11:27:09 PM 42.1100 -83.6060 81° East 504 580 37,000 77 Climbing FlightAware ADS-B
Sun 11:27:44 PM 42.1210 -83.4970 82° East 502 578 37,000  Level FlightAware ADS-B
Sun 11:28:32 PM 42.1350 -83.3710 81° East 501 577 37,000  Level FlightAware ADS-B
Sun 11:29:13 PM 42.1480 -83.2460 82° East 501 577 37,000  Level FlightAware ADS-B
Sun 11:29:58 PM 42.1640 -83.0990 82° East 500 575 37,000  Level FlightAware ADS-B
Sun 11:30:39 PM 42.1760 -82.9730 83° East 500 575 37,000  Level FlightAware ADS-B
Sun 11:31:19 PM 42.1890 -82.8540 82° East 500 575 37,000  Level FlightAware ADS-B
Sun 11:32:02 PM 42.2020 -82.7220 82° East 501 577 37,000  Level FlightAware ADS-B
Sun 11:32:40 PM 42.2140 -82.6040 82° East 502 578 37,000  Level FlightAware ADS-B
Sun 11:33:24 PM 42.2290 -82.4470 83° East 502 578 37,000  Level FlightAware ADS-B
Sun 11:34:03 PM 42.2410 -82.3260 82° East 505 581 37,000  Level FlightAware ADS-B
Sun 11:34:52 PM 42.2560 -82.1740 82° East 507 583 37,000  Level FlightAware ADS-B
Sun 11:35:32 PM 42.2680 -82.0460 83° East 509 586 37,000  Level FlightAware ADS-B
Sun 11:36:14 PM 42.2800 -81.9160 83° East 509 586 37,000  Level FlightAware ADS-B
Sun 11:36:58 PM 42.2930 -81.7770 83° East 508 585 37,000  Level FlightAware ADS-B
Sun 11:37:39 PM 42.3050 -81.6470 83° East 508 585 37,000  Level FlightAware ADS-B
Sun 11:38:21 PM 42.3170 -81.5140 83° East 508 585 37,000  Level FlightAware ADS-B
Sun 11:39:02 PM 42.3290 -81.3870 83° East 509 586 37,000  Level FlightAware ADS-B
Sun 11:39:43 PM 42.3400 -81.2590 83° East 508 585 37,000  Level FlightAware ADS-B
Sun 11:40:26 PM 42.3510 -81.1250 84° East 508 585 37,000  Level FlightAware ADS-B
Sun 11:41:07 PM 42.3620 -80.9970 83° East 509 586 37,000  Level FlightAware ADS-B
Sun 11:41:52 PM 42.3750 -80.8510 83° East 509 586 37,000  Level FlightAware ADS-B
Sun 11:42:33 PM 42.3850 -80.7260 84° East 509 586 37,000  Level FlightAware ADS-B
Sun 11:43:16 PM 42.3970 -80.5880 83° East 509 586 37,000  Level FlightAware ADS-B
Sun 11:44:13 PM 42.4120 -80.4030 84° East 510 587 37,000  Level FlightAware ADS-B
Sun 11:44:52 PM 42.4210 -80.2830 84° East 511 588 37,000  Level FlightAware ADS-B
Sun 11:45:33 PM 42.4320 -80.1500 84° East 511 588 37,000  Level FlightAware ADS-B
Sun 11:46:19 PM 42.4430 -80.0030 84° East 511 588 37,000  Level FlightAware ADS-B
Sun 11:46:58 PM 42.4520 -79.8820 84° East 510 587 37,000  Level FlightAware ADS-B
Sun 11:47:42 PM 42.4620 -79.7400 84° East 508 585 37,000  Level FlightAware ADS-B
Sun 11:48:23 PM 42.4720 -79.6130 84° East 508 585 37,000  Level FlightAware ADS-B
Sun 11:49:04 PM 42.4810 -79.4830 85° East 508 585 37,000  Level FlightAware ADS-B
Sun 11:49:48 PM 42.4910 -79.3440 84° East 508 585 37,000  Level FlightAware ADS-B
Sun 11:50:28 PM 42.5000 -79.2150 85° East 508 585 37,000  Level FlightAware ADS-B
Sun 11:51:12 PM 42.5100 -79.0780 84° East 508 585 37,000 -282 Level FlightAware ADS-B
Sun 11:51:53 PM 42.5180 -78.9480 85° East 511 588 36,600 -786 Descending FlightAware ADS-B
Sun 11:52:36 PM 42.5280 -78.8120 84° East 514 592 35,900 -1,012 Descending FlightAware ADS-B
Sun 11:53:16 PM 42.5360 -78.6820 85° East 515 593 35,200 -1,000 Descending FlightAware ADS-B
Sun 11:54:00 PM 42.5450 -78.5410 85° East 505 581 34,500 -1,000 Descending FlightAware ADS-B
Sun 11:54:40 PM 42.5530 -78.4160 85° East 501 577 33,800 -1,037 Descending FlightAware ADS-B
Sun 11:55:21 PM 42.5610 -78.2900 85° East 499 574 33,100 -565 Descending FlightAware ADS-B
Sun 11:56:05 PM 42.5690 -78.1550 85° East 498 573 33,000 -71 Descending FlightAware ADS-B
Sun 11:56:45 PM 42.5760 -78.0280 86° East 497 572 33,000 -214 Level FlightAware ADS-B
Sun 11:57:29 PM 42.5840 -77.8930 85° East 501 577 32,700 -659 Descending FlightAware ADS-B
Sun 11:58:07 PM 42.5910 -77.7750 85° East 499 574 32,100 -988 Descending FlightAware ADS-B
Sun 11:58:54 PM 42.5990 -77.6270 86° East 487 560 31,300 -1,034 Descending FlightAware ADS-B
Sun 11:59:34 PM 42.6060 -77.5070 85° East 482 555 30,600 -1,071 Descending FlightAware ADS-B
Mon 12:00:18 AM 42.6130 -77.3730 86° East 473 544 29,800 -1,000 Descending FlightAware ADS-B
Mon 12:00:58 AM 42.6190 -77.2580 86° East 458 527 29,200 -565 Descending FlightAware ADS-B
Mon 12:01:43 AM 42.6260 -77.1320 86° East 454 522 29,000 -143 Descending FlightAware ADS-B
Mon 12:02:22 AM 42.6310 -77.0220 86° East 451 519 29,000  Level FlightAware ADS-B
Mon 12:03:06 AM 42.6370 -76.8950 86° East 447 514 29,000  Level FlightAware ADS-B
Mon 12:03:46 AM 42.6430 -76.7840 86° East 443 510 29,000  Level FlightAware ADS-B
Mon 12:04:30 AM 42.6490 -76.6640 86° East 439 505 29,000  Level FlightAware ADS-B
Mon 12:05:10 AM 42.6540 -76.5530 86° East 436 502 29,000  Level FlightAware ADS-B
Mon 12:05:51 AM 42.6590 -76.4440 86° East 432 497 29,000  Level FlightAware ADS-B
Mon 12:06:30 AM 42.6540 -76.3400 94° East 419 482 29,000  Level FlightAware ADS-B
Mon 12:07:14 AM 42.6380 -76.2250 101° East 419 482 29,000  Level FlightAware ADS-B
Mon 12:07:59 AM 42.6170 -76.1130 104° East 418 481 29,000  Level FlightAware ADS-B
Mon 12:08:42 AM 42.5940 -76.0020 106° East 424 488 29,000 -145 Level FlightAware ADS-B
Mon 12:09:22 AM 42.5680 -75.9010 109° East 428 493 28,800 -1,071 Descending FlightAware ADS-B
Mon 12:10:06 AM 42.5390 -75.7890 109° East 418 481 27,500 -1,624 Descending FlightAware ADS-B
Mon 12:10:47 AM 42.5130 -75.6940 110° East 404 465 26,500 -1,463 Descending FlightAware ADS-B
Mon 12:11:28 AM 42.4890 -75.5960 108° East 397 457 25,500 -1,553 Descending FlightAware ADS-B
Mon 12:12:12 AM 42.4790 -75.4870 97° East 390 449 24,300 -1,857 Descending FlightAware ADS-B
Mon 12:12:52 AM 42.4690 -75.3920 98° East 394 453 22,900 -2,063 Descending FlightAware ADS-B
Mon 12:13:48 AM 42.4620 -75.2530 94° East 398 458 21,000 -1,714 Descending FlightAware ADS-B
Mon 12:14:30 AM 42.4770 -75.1550 78° East 387 445 20,100 -831 Descending FlightAware ADS-B
Mon 12:15:58 AM 42.5250 -74.9740 70° East 391 450 19,200 -239 Descending FlightAware ADS-B
Mon 12:18:16 AM 42.5970 -74.7030 70° East 391 450 19,200  Level FlightAware ADS-B
Mon 12:18:53 AM 42.6160 -74.6310 70° East 391 450 19,200 -2,169 Level FlightAware ADS-B
Mon 12:24:35 AM 42.8080 -73.9770 68° East 262 302 5,500 -2,379 Descending FlightAware ADS-B
Mon 12:24:41 AM 42.8120 -73.9690 56° Northeast 262 302 5,400 -556 Descending FlightAware ADS-B
Mon 12:25:29 AM 42.8400 -73.9130 56° Northeast 233 268 5,000 -615 Descending FlightAware ADS-B
Mon 12:25:59 AM 42.8600 -73.8730 56° Northeast 218 251 4,600 -889 Descending FlightAware ADS-B
Mon 12:26:23 AM 42.8720 -73.8480 57° Northeast 202 232 4,200 -973 Descending FlightAware ADS-B
Mon 12:26:36 AM 42.8790 -73.8340 56° Northeast 197 227 4,000 -1,000 Descending FlightAware ADS-B
Mon 12:27:05 AM 42.8910 -73.8080 58° Northeast 180 207 3,500 -556 Descending FlightAware ADS-B
Mon 12:27:30 AM 42.8980 -73.7860 67° East 180 207 3,500 -1,378 Level FlightAware ADS-B
Mon 12:28:19 AM 42.8486 -73.7994 67° East 93 107 1,800 -991 Descending Boston Center
Mon 12:29:19 AM 42.8322 -73.7819 142° Southeast 93 107 1,700 -100 Descending Boston Center

Login

Don't have an account? Register now (free) for customized features, flight alerts, and more!